This is the latest recevied weather packets stored in our database for station/object N1TKS. If no packets are shown the sender has not sent any weather packets the latest 10 day(s).
| Time | Temp. | Humidity | Pressure | Rain* | Wind** | Luminosity | Snow |
|---|---|---|---|---|---|---|---|
| 1778168513 | 16.11° C | 45% | 1010.8 hPa | 0 mm | - | - | - |
| 1778168212 | 16.11° C | 47% | 1010.9 hPa | 0 mm | - | - | - |
| 1778167913 | 15.56° C | 48% | 1010.9 hPa | 0 mm | - | - | - |
| 1778167614 | 15.56° C | 49% | 1011 hPa | 0 mm | - | - | - |
| 1778167315 | 15.56° C | 50% | 1011 hPa | 0 mm | - | - | - |
| 1778167017 | 15° C | 56% | 1010.9 hPa | 0 mm | - | - | - |
| 1778165550 | 15° C | 58% | 1011.1 hPa | 0 mm | - | - | - |
| 1778165517 | 15° C | 58% | 1011.1 hPa | 0 mm | - | - | - |
| 1778164914 | 14.44° C | 61% | 1011 hPa | 0 mm | - | - | - |
| 1778164727 | 14.44° C | 64% | 1011.1 hPa | 0 mm | - | - | - |
| 1778164617 | 14.44° C | 64% | 1011.1 hPa | 0 mm | - | - | - |
| 1778164014 | 13.89° C | 69% | 1011.1 hPa | 0 mm | - | - | - |
| 1778163713 | 13.33° C | 68% | 1011 hPa | 0 mm | - | - | - |
| 1778163413 | 13.33° C | 71% | 1011.1 hPa | 0 mm | - | - | - |
| 1778162513 | 13.89° C | 72% | 1011 hPa | 0 mm | - | - | - |
| 1778161013 | 12.78° C | 78% | 1011.3 hPa | 0 mm | - | - | - |
| 1778160414 | 12.22° C | 81% | 1011.3 hPa | 0 mm | - | - | - |
| 1778160114 | 12.22° C | 81% | 1011.2 hPa | 0 mm | - | - | - |
| 1778159272 | 11.67° C | 84% | 1011.1 hPa | 0 mm | - | - | - |
| 1778159215 | 11.67° C | 84% | 1011.1 hPa | 0 mm | - | - | - |
| 1778158514 | 11.11° C | 86% | 1011.3 hPa | 0 mm | - | - | - |
| 1778158354 | 11.11° C | 86% | 1011.3 hPa | 0 mm | - | - | - |
| 1778158320 | 11.11° C | 86% | 1011.3 hPa | 0 mm | - | - | - |
| 1778157816 | 10.56° C | 87% | 1011.3 hPa | 0 mm | - | - | - |
| 1778157712 | 10.56° C | 87% | 1011.3 hPa | 0 mm | - | - | - |
* Rain latest hour (hover to see other rain measurements)
** Current wind speed in m/s (hover to see current wind gust speed)